Andersonburg, Pennsylvania
Current Conditions -  °F | °C
As of 4:56 PM on Saturday 25 Oct 2014 (Local Time) from KCXY Reporting Station
Broken Clouds Broken Clouds  
Wind Chill: 70°   Ceiling: 7000
Heat Index: 70°   Visibility: 10mi
Dew Point: 46°   Wind: 10mph
Humidity: 42%   Direction: 240°WSW
Pressure: 29.7"   Gusts: NA
Location:  40.3674°N, 77.4381°W
Report Text: KCXY 252056Z 24009KT 10SM BKN070 21/08 A2970 RMK AO2 SLP056 T02110078 56034
Loading
Personal Weather Stations






























Interactive Weather Map
Tropical Storm Tracking
New forecast layout! Learn more

10-Day Weather Forecast

Advertisements
Track Severe Weather on mobile